Observation data for Seymour on 04/08/2021      Previous  Date  Next       Current Mesonet Observations  Soil Data  Daily Summary Page  Observations in Plain Language
KSE1 080500Z 22001KT 09/06 A2988 RMK A01 T00900056  RH  081%=      5-min Rain = 0
KSE1 080505Z 21000KT 09/06 A2988 RMK A01 T00930055  RH  079%=      5-min Rain = 0
KSE1 080510Z 20001KT 10/05 A2988 RMK A01 T01000049  RH  072%=      5-min Rain = 0
KSE1 080515Z 31000KT 10/05 A2988 RMK A01 T00990045  RH  070%=      5-min Rain = 0
KSE1 080520Z 30000KT 11/04 A2988 RMK A01 T01110042  RH  064%=      5-min Rain = 0
KSE1 080525Z 00000KT 11/04 A2988 RMK A01 T01090043  RH  065%=      5-min Rain = 0
KSE1 080530Z 00000KT 10/05 A2988 RMK A01 T00980047  RH  072%=      5-min Rain = 0
KSE1 080535Z 29000KT 10/05 A2988 RMK A01 T00970051  RH  075%=      5-min Rain = 0
KSE1 080540Z 00000KT 10/05 A2988 RMK A01 T00950049  RH  075%=      5-min Rain = 0
KSE1 080545Z 00000KT 09/05 A2988 RMK A01 T00870051  RH  080%=      5-min Rain = 0
KSE1 080550Z 00000KT 08/05 A2988 RMK A01 T00840048  RH  080%=      5-min Rain = 0
KSE1 080555Z 00000KT 08/04 A2988 RMK A01 T00830044  RH  078%=      5-min Rain = 0
KSE1 080600Z 00000KT 08/04 A2988 RMK A01 T00810038  RH  075%=      5-min Rain = 0
KSE1 080605Z 00000KT 08/04 A2988 RMK A01 T00830037  RH  074%=      5-min Rain = 0
KSE1 080610Z 33000KT 08/04 A2988 RMK A01 T00810042  RH  078%=      5-min Rain = 0
KSE1 080615Z 20001KT 08/04 A2988 RMK A01 T00820044  RH  079%=      5-min Rain = 0
KSE1 080620Z 20000KT 08/04 A2988 RMK A01 T00810038  RH  076%=      5-min Rain = 0
KSE1 080625Z 00000KT 09/04 A2988 RMK A01 T00850040  RH  075%=      5-min Rain = 0
KSE1 080630Z 23001KT 08/04 A2988 RMK A01 T00810039  RH  076%=      5-min Rain = 0
KSE1 080635Z 27001KT 08/05 A2988 RMK A01 T00790047  RH  082%=      5-min Rain = 0
KSE1 080640Z 25001KT 08/05 A2988 RMK A01 T00800049  RH  083%=      5-min Rain = 0
KSE1 080645Z 26001KT 08/05 A2988 RMK A01 T00750046  RH  084%=      5-min Rain = 0
KSE1 080650Z 00000KT 08/05 A2988 RMK A01 T00750048  RH  085%=      5-min Rain = 0
KSE1 080655Z 00000KT 08/04 A2988 RMK A01 T00750042  RH  081%=      5-min Rain = 0
KSE1 080700Z 00000KT 07/04 A2988 RMK A01 T00740043  RH  082%=      5-min Rain = 0
KSE1 080705Z 32000KT 08/05 A2988 RMK A01 T00760047  RH  083%=      5-min Rain = 0
KSE1 080710Z 34000KT 08/04 A2988 RMK A01 T00760040  RH  080%=      5-min Rain = 0
KSE1 080715Z 32000KT 07/03 A2988 RMK A01 T00720034  RH  079%=      5-min Rain = 0
KSE1 080720Z 26001KT 06/03 A2988 RMK A01 T00630032  RH  082%=      5-min Rain = 0
KSE1 080725Z 28001KT 07/04 A2988 RMK A01 T00650039  RH  085%=      5-min Rain = 0
KSE1 080730Z 31000KT 07/05 A2988 RMK A01 T00730048  RH  086%=      5-min Rain = 0
KSE1 080735Z 34000KT 08/04 A2988 RMK A01 T00750043  RH  082%=      5-min Rain = 0
KSE1 080740Z 00000KT 07/04 A2987 RMK A01 T00690038  RH  082%=      5-min Rain = 0
KSE1 080745Z 00000KT 07/04 A2987 RMK A01 T00690042  RH  084%=      5-min Rain = 0
KSE1 080750Z 00000KT 07/04 A2987 RMK A01 T00670039  RH  084%=      5-min Rain = 0
KSE1 080755Z 16001KT 07/04 A2987 RMK A01 T00650035  RH  083%=      5-min Rain = 0
KSE1 080800Z 17002KT 06/03 A2987 RMK A01 T00590032  RH  085%=      5-min Rain = 0
KSE1 080805Z 17001KT 05/03 A2987 RMK A01 T00520027  RH  085%=      5-min Rain = 0
KSE1 080810Z 22001KT 05/03 A2987 RMK A01 T00540033  RH  088%=      5-min Rain = 0
KSE1 080815Z 22000KT 06/04 A2987 RMK A01 T00600039  RH  088%=      5-min Rain = 0
KSE1 080820Z 00000KT 07/04 A2987 RMK A01 T00650043  RH  088%=      5-min Rain = 0
KSE1 080825Z 21001KT 06/04 A2987 RMK A01 T00610035  RH  085%=      5-min Rain = 0
KSE1 080830Z 24001KT 05/03 A2987 RMK A01 T00520028  RH  086%=      5-min Rain = 0
KSE1 080835Z 23001KT 05/03 A2987 RMK A01 T00510031  RH  088%=      5-min Rain = 0
KSE1 080840Z 23000KT 06/04 A2987 RMK A01 T00550038  RH  090%=      5-min Rain = 0
KSE1 080845Z 22001KT 06/04 A2987 RMK A01 T00580040  RH  090%=      5-min Rain = 0
KSE1 080850Z 22001KT 06/04 A2987 RMK A01 T00580041  RH  091%=      5-min Rain = 0
KSE1 080855Z 00000KT 06/04 A2987 RMK A01 T00610043  RH  090%=      5-min Rain = 0
KSE1 080900Z 20001KT 06/04 A2987 RMK A01 T00600040  RH  088%=      5-min Rain = 0
KSE1 080905Z 21001KT 06/04 A2987 RMK A01 T00550035  RH  088%=      5-min Rain = 0
KSE1 080910Z 21000KT 05/04 A2987 RMK A01 T00530035  RH  090%=      5-min Rain = 0
KSE1 080915Z 00000KT 06/04 A2987 RMK A01 T00580041  RH  090%=      5-min Rain = 0
KSE1 080920Z 00000KT 06/04 A2986 RMK A01 T00620040  RH  088%=      5-min Rain = 0
KSE1 080925Z 25000KT 06/03 A2987 RMK A01 T00580034  RH  086%=      5-min Rain = 0
KSE1 080930Z 24001KT 06/03 A2987 RMK A01 T00550032  RH  087%=      5-min Rain = 0
KSE1 080935Z 21001KT 05/03 A2987 RMK A01 T00510030  RH  088%=      5-min Rain = 0
KSE1 080940Z 22002KT 05/03 A2987 RMK A01 T00500032  RH  090%=      5-min Rain = 0
KSE1 080945Z 20002KT 05/03 A2987 RMK A01 T00500032  RH  090%=      5-min Rain = 0
KSE1 080950Z 20002KT 05/03 A2987 RMK A01 T00450028  RH  090%=      5-min Rain = 0
KSE1 080955Z 21002KT 05/03 A2987 RMK A01 T00480033  RH  091%=      5-min Rain = 0
KSE1 081000Z 23001KT 05/03 A2987 RMK A01 T00490032  RH  091%=      5-min Rain = 0
KSE1 081005Z 00000KT 05/03 A2987 RMK A01 T00490033  RH  091%=      5-min Rain = 0
KSE1 081010Z 20000KT 05/03 A2987 RMK A01 T00490032  RH  090%=      5-min Rain = 0
KSE1 081015Z 18002KT 05/03 A2988 RMK A01 T00450027  RH  090%=      5-min Rain = 0
KSE1 081020Z 19001KT 04/03 A2988 RMK A01 T00430026  RH  090%=      5-min Rain = 0
KSE1 081025Z 20001KT 05/03 A2988 RMK A01 T00460030  RH  091%=      5-min Rain = 0
KSE1 081030Z 19002KT 04/03 A2988 RMK A01 T00420025  RH  091%=      5-min Rain = 0
KSE1 081035Z 20003KT 04/02 A2988 RMK A01 T00400024  RH  091%=      5-min Rain = 0
KSE1 081040Z 22001KT 04/03 A2987 RMK A01 T00410027  RH  092%=      5-min Rain = 0
KSE1 081045Z 21002KT 04/03 A2988 RMK A01 T00440030  RH  092%=      5-min Rain = 0
KSE1 081050Z 22002KT 05/03 A2988 RMK A01 T00450029  RH  091%=      5-min Rain = 0
KSE1 081055Z 22002KT 04/03 A2988 RMK A01 T00430027  RH  091%=      5-min Rain = 0
KSE1 081100Z 22002KT 04/03 A2988 RMK A01 T00430028  RH  091%=      5-min Rain = 0
KSE1 081105Z 22002KT 05/03 A2988 RMK A01 T00460030  RH  091%=      5-min Rain = 0
KSE1 081110Z 23002KT 05/03 A2988 RMK A01 T00470032  RH  091%=      5-min Rain = 0
KSE1 081115Z 23002KT 05/03 A2988 RMK A01 T00500033  RH  091%=      5-min Rain = 0
KSE1 081120Z 24002KT 05/03 A2988 RMK A01 T00510033  RH  090%=      5-min Rain = 0
KSE1 081125Z 24002KT 05/03 A2988 RMK A01 T00500031  RH  089%=      5-min Rain = 0
KSE1 081130Z 24001KT 05/03 A2988 RMK A01 T00500031  RH  089%=      5-min Rain = 0
KSE1 081135Z 25001KT 05/03 A2988 RMK A01 T00510031  RH  089%=      5-min Rain = 0
KSE1 081140Z 00000KT 05/03 A2988 RMK A01 T00520031  RH  088%=      5-min Rain = 0
KSE1 081145Z 23001KT 05/03 A2988 RMK A01 T00490027  RH  087%=      5-min Rain = 0
KSE1 081150Z 23002KT 04/02 A2988 RMK A01 T00410018  RH  087%=      5-min Rain = 0
KSE1 081155Z 22001KT 04/02 A2988 RMK A01 T00380019  RH  089%=      5-min Rain = 0
KSE1 081200Z 23001KT 04/02 A2988 RMK A01 T00380021  RH  090%=      5-min Rain = 0
KSE1 081205Z 24001KT 04/02 A2988 RMK A01 T00370021  RH  091%=      5-min Rain = 0
KSE1 081210Z 24001KT 04/02 A2988 RMK A01 T00390024  RH  092%=      5-min Rain = 0
KSE1 081215Z 23000KT 04/02 A2988 RMK A01 T00390024  RH  092%=      5-min Rain = 0
KSE1 081220Z 00000KT 04/02 A2988 RMK A01 T00380024  RH  092%=      5-min Rain = 0
KSE1 081225Z 00000KT 04/03 A2988 RMK A01 T00380025  RH  092%=      5-min Rain = 0
KSE1 081230Z 18000KT 04/03 A2988 RMK A01 T00400027  RH  093%=      5-min Rain = 0
KSE1 081235Z 18002KT 04/03 A2988 RMK A01 T00420028  RH  092%=      5-min Rain = 0
KSE1 081240Z 17002KT 04/03 A2988 RMK A01 T00410026  RH  091%=      5-min Rain = 0
KSE1 081245Z 16001KT 05/03 A2988 RMK A01 T00460031  RH  091%=      5-min Rain = 0
KSE1 081250Z 17001KT 05/03 A2988 RMK A01 T00520034  RH  090%=      5-min Rain = 0
KSE1 081255Z 19001KT 05/03 A2988 RMK A01 T00540031  RH  087%=      5-min Rain = 0
KSE1 081300Z 20000KT 06/03 A2988 RMK A01 T00570034  RH  087%=      5-min Rain = 0
KSE1 081305Z 20000KT 07/04 A2988 RMK A01 T00660041  RH  086%=      5-min Rain = 0
KSE1 081310Z 00000KT 07/04 A2988 RMK A01 T00740042  RH  082%=      5-min Rain = 0
KSE1 081315Z 00000KT 08/04 A2988 RMK A01 T00810040  RH  077%=      5-min Rain = 0
KSE1 081320Z 00000KT 09/04 A2988 RMK A01 T00850043  RH  076%=      5-min Rain = 0
KSE1 081325Z 00000KT 09/05 A2988 RMK A01 T00900045  RH  075%=      5-min Rain = 0
KSE1 081330Z 00000KT 10/05 A2988 RMK A01 T00960048  RH  074%=      5-min Rain = 0
KSE1 081335Z 00000KT 10/05 A2988 RMK A01 T01040052  RH  072%=      5-min Rain = 0
KSE1 081340Z 00000KT 11/06 A2988 RMK A01 T01090057  RH  072%=      5-min Rain = 0
KSE1 081345Z 00000KT 12/06 A2988 RMK A01 T01190060  RH  069%=      5-min Rain = 0
KSE1 081350Z 00000KT 13/06 A2988 RMK A01 T01270055  RH  063%=      5-min Rain = 0
KSE1 081355Z 31000KT 14/06 A2988 RMK A01 T01360059  RH  061%=      5-min Rain = 0
KSE1 081400Z 30000KT 14/06 A2988 RMK A01 T01410060  RH  059%=      5-min Rain = 0
KSE1 081405Z 29000KT 15/06 A2988 RMK A01 T01470064  RH  059%=      5-min Rain = 0
KSE1 081410Z 34000KT 15/06 A2988 RMK A01 T01490064  RH  058%=      5-min Rain = 0
KSE1 081415Z 08000KT 16/07 A2988 RMK A01 T01580066  RH  056%=      5-min Rain = 0
KSE1 081420Z 09000KT 16/07 A2988 RMK A01 T01640069  RH  055%=      5-min Rain = 0
KSE1 081425Z 08000KT 17/06 A2988 RMK A01 T01720064  RH  050%=      5-min Rain = 0
KSE1 081430Z 11000KT 18/06 A2988 RMK A01 T01760057  RH  047%=      5-min Rain = 0
KSE1 081435Z 13001KT 18/05 A2988 RMK A01 T01760047  RH  043%=      5-min Rain = 0
KSE1 081440Z 15001KT 18/06 A2988 RMK A01 T01750055  RH  046%=      5-min Rain = 0
KSE1 081445Z 16003KT 17/06 A2988 RMK A01 T01730059  RH  048%=      5-min Rain = 0
KSE1 081450Z 16002KT 18/06 A2988 RMK A01 T01760058  RH  047%=      5-min Rain = 0
KSE1 081455Z 18004KT 18/07 A2988 RMK A01 T01800065  RH  048%=      5-min Rain = 0
KSE1 081500Z 18004KT 18/07 A2988 RMK A01 T01810073  RH  051%=      5-min Rain = 0
KSE1 081505Z 18005KT 19/06 A2988 RMK A01 T01870060  RH  044%=      5-min Rain = 0
KSE1 081510Z 18006KT 19/06 A2988 RMK A01 T01890060  RH  044%=      5-min Rain = 0
KSE1 081515Z 17007KT 19/06 A2988 RMK A01 T01910056  RH  042%=      5-min Rain = 0
KSE1 081520Z 17007KT 20/06 A2988 RMK A01 T01980057  RH  041%=      5-min Rain = 0
KSE1 081525Z 17008KT 21/05 A2988 RMK A01 T02050054  RH  038%=      5-min Rain = 0
KSE1 081530Z 16008KT 21/04 A2988 RMK A01 T02110042  RH  034%=      5-min Rain = 0
KSE1 081535Z 15009KT 21/04 A2987 RMK A01 T02130038  RH  032%=      5-min Rain = 0
KSE1 081540Z 16008KT 22/03 A2987 RMK A01 T02160034  RH  031%=      5-min Rain = 0
KSE1 081545Z 15008KT 22/03 A2987 RMK A01 T02160030  RH  030%=      5-min Rain = 0
KSE1 081550Z 16007KT 22/03 A2987 RMK A01 T02180030  RH  029%=      5-min Rain = 0
KSE1 081555Z 17007KT 22/03 A2987 RMK A01 T02220033  RH  030%=      5-min Rain = 0
KSE1 081600Z 15007KT 23/03 A2987 RMK A01 T02250033  RH  029%=      5-min Rain = 0
KSE1 081605Z 14006KT 22/03 A2987 RMK A01 T02220028  RH  028%=      5-min Rain = 0
KSE1 081610Z 17006KT 23/03 A2987 RMK A01 T02270029  RH  028%=      5-min Rain = 0
KSE1 081615Z 15007KT 23/03 A2987 RMK A01 T02270027  RH  027%=      5-min Rain = 0
KSE1 081620Z 16005KT 23/03 A2986 RMK A01 T02280025  RH  027%=      5-min Rain = 0
KSE1 081625Z 12005KT 23/03 A2986 RMK A01 T02310029  RH  027%=      5-min Rain = 0
KSE1 081630Z 12005KT 23/03 A2986 RMK A01 T02340027  RH  026%=      5-min Rain = 0
KSE1 081635Z 15006KT 24/03 A2986 RMK A01 T02390032  RH  026%=      5-min Rain = 0
KSE1 081640Z 12005KT 24/03 A2986 RMK A01 T02380029  RH  026%=      5-min Rain = 0
KSE1 081645Z 14006KT 24/03 A2985 RMK A01 T02430029  RH  025%=      5-min Rain = 0
KSE1 081650Z 11007KT 24/02 A2985 RMK A01 T02430024  RH  024%=      5-min Rain = 0
KSE1 081655Z 11006KT 24/02 A2985 RMK A01 T02420016  RH  023%=      5-min Rain = 0
KSE1 081700Z 14006KT 24/02 A2984 RMK A01 T02430020  RH  024%=      5-min Rain = 0
KSE1 081705Z 13006KT 25/02 A2984 RMK A01 T02480023  RH  024%=      5-min Rain = 0
KSE1 081710Z 13007KT 25/02 A2984 RMK A01 T02480017  RH  022%=      5-min Rain = 0
KSE1 081715Z 11007KT 25/02 A2984 RMK A01 T02530023  RH  023%=      5-min Rain = 0
KSE1 081720Z 12006KT 25/01 A2984 RMK A01 T02520007  RH  020%=      5-min Rain = 0
KSE1 081725Z 13007KT 26/02 A2984 RMK A01 T02550020  RH  022%=      5-min Rain = 0
KSE1 081730Z 11007G13KT 25/01 A2983 RMK A01 T02530008  RH  020%=      5-min Rain = 0
KSE1 081735Z 13008KT 26/01 A2983 RMK A01 T02590014  RH  021%=      5-min Rain = 0
KSE1 081740Z 15006G11KT 25/01 A2983 RMK A01 T02510014  RH  021%=      5-min Rain = 0
KSE1 081745Z 14009KT 25/02 A2983 RMK A01 T02530017  RH  022%=      5-min Rain = 0
KSE1 081750Z 12008KT 25/01 A2983 RMK A01 T02530011  RH  021%=      5-min Rain = 0
KSE1 081755Z 13009KT 25/01 A2983 RMK A01 T02520011  RH  021%=      5-min Rain = 0
KSE1 081800Z 13003KT 25/01 A2982 RMK A01 T02520013  RH  021%=      5-min Rain = 0
KSE1 081805Z 14009G15KT 26/02 A2982 RMK A01 T02580021  RH  022%=      5-min Rain = 0
KSE1 081810Z 15008G13KT 26/02 A2982 RMK A01 T02560022  RH  022%=      5-min Rain = 0
KSE1 081815Z 14006G11KT 25/02 A2982 RMK A01 T02540016  RH  022%=      5-min Rain = 0
KSE1 081820Z 15009KT 26/03 A2981 RMK A01 T02570027  RH  023%=      5-min Rain = 0
KSE1 081825Z 15009G14KT 26/03 A2981 RMK A01 T02610030  RH  023%=      5-min Rain = 0
KSE1 081830Z 15008G13KT 26/03 A2981 RMK A01 T02580027  RH  023%=      5-min Rain = 0
KSE1 081835Z 14009G17KT 26/03 A298 RMK A01 T02580031  RH  023%=      5-min Rain = 0
KSE1 081840Z 13007G12KT 26/03 A298 RMK A01 T02560027  RH  023%=      5-min Rain = 0
KSE1 081845Z 12011G19KT 26/04 A2979 RMK A01 T02620035  RH  024%=      5-min Rain = 0
KSE1 081850Z 13010G16KT 26/03 A2979 RMK A01 T02610032  RH  023%=      5-min Rain = 0
KSE1 081855Z 14008KT 27/04 A2979 RMK A01 T02680039  RH  023%=      5-min Rain = 0
KSE1 081900Z 12009KT 26/04 A2978 RMK A01 T02640038  RH  024%=      5-min Rain = 0
KSE1 081905Z 16009G14KT 27/04 A2978 RMK A01 T02650038  RH  024%=      5-min Rain = 0
KSE1 081910Z 15006G12KT 26/04 A2978 RMK A01 T02640041  RH  024%=      5-min Rain = 0
KSE1 081915Z 15008G13KT 27/04 A2977 RMK A01 T02680043  RH  024%=      5-min Rain = 0
KSE1 081920Z 13008G14KT 27/04 A2977 RMK A01 T02680041  RH  024%=      5-min Rain = 0
KSE1 081925Z 16012KT 26/03 A2977 RMK A01 T02640034  RH  023%=      5-min Rain = 0
KSE1 081930Z 18007G12KT 26/04 A2977 RMK A01 T02640035  RH  023%=      5-min Rain = 0
KSE1 081935Z 14006KT 27/04 A2976 RMK A01 T02690038  RH  023%=      5-min Rain = 0
KSE1 081940Z 13007KT 27/04 A2976 RMK A01 T02670037  RH  023%=      5-min Rain = 0
KSE1 081945Z 15006KT 27/03 A2976 RMK A01 T02670034  RH  023%=      5-min Rain = 0
KSE1 081950Z 12008G15KT 27/04 A2976 RMK A01 T02700043  RH  024%=      5-min Rain = 0
KSE1 081955Z 16006G12KT 27/04 A2975 RMK A01 T02710039  RH  023%=      5-min Rain = 0
KSE1 082000Z 15007KT 27/04 A2975 RMK A01 T02720041  RH  023%=      5-min Rain = 0
KSE1 082005Z 17008KT 27/04 A2975 RMK A01 T02730038  RH  023%=      5-min Rain = 0
KSE1 082010Z 15006G11KT 28/04 A2975 RMK A01 T02750036  RH  022%=      5-min Rain = 0
KSE1 082015Z 18003KT 27/03 A2974 RMK A01 T02740034  RH  022%=      5-min Rain = 0
KSE1 082020Z 18004KT 28/04 A2974 RMK A01 T02780042  RH  022%=      5-min Rain = 0
KSE1 082025Z 18006KT 28/04 A2973 RMK A01 T02770036  RH  022%=      5-min Rain = 0
KSE1 082030Z 20005KT 27/04 A2973 RMK A01 T02740036  RH  022%=      5-min Rain = 0
KSE1 082035Z 17005G11KT 28/04 A2972 RMK A01 T02790041  RH  022%=      5-min Rain = 0
KSE1 082040Z 17009KT 28/04 A2972 RMK A01 T02780039  RH  022%=      5-min Rain = 0
KSE1 082045Z 14004KT 28/04 A2972 RMK A01 T02770035  RH  022%=      5-min Rain = 0
KSE1 082050Z 18003KT 28/04 A2972 RMK A01 T02760035  RH  022%=      5-min Rain = 0
KSE1 082055Z 14008KT 28/05 A2971 RMK A01 T02800045  RH  023%=      5-min Rain = 0
KSE1 082100Z 13006KT 28/04 A2971 RMK A01 T02790040  RH  022%=      5-min Rain = 0
KSE1 082105Z 12007KT 28/04 A2971 RMK A01 T02790039  RH  022%=      5-min Rain = 0
KSE1 082110Z 16005KT 28/05 A2971 RMK A01 T02840046  RH  022%=      5-min Rain = 0
KSE1 082115Z 16003KT 28/04 A297 RMK A01 T02840042  RH  022%=      5-min Rain = 0
KSE1 082120Z 11006KT 28/04 A297 RMK A01 T02830042  RH  022%=      5-min Rain = 0
KSE1 082125Z 13008G15KT 28/04 A297 RMK A01 T02820041  RH  022%=      5-min Rain = 0
KSE1 082130Z 21006G13KT 29/04 A297 RMK A01 T02860035  RH  020%=      5-min Rain = 0
KSE1 082135Z 19007G12KT 29/03 A2969 RMK A01 T02850034  RH  020%=      5-min Rain = 0
KSE1 082140Z 20006KT 29/04 A2969 RMK A01 T02850035  RH  020%=      5-min Rain = 0
KSE1 082145Z 23004KT 28/03 A2969 RMK A01 T02820031  RH  020%=      5-min Rain = 0
KSE1 082150Z 23006KT 28/04 A2969 RMK A01 T02830036  RH  021%=      5-min Rain = 0
KSE1 082155Z 23004KT 28/04 A2969 RMK A01 T02840039  RH  021%=      5-min Rain = 0
KSE1 082200Z 19005KT 29/04 A2968 RMK A01 T02880036  RH  020%=      5-min Rain = 0
KSE1 082205Z 22006KT 29/03 A2968 RMK A01 T02860031  RH  020%=      5-min Rain = 0
KSE1 082210Z 21005KT 28/04 A2968 RMK A01 T02830040  RH  022%=      5-min Rain = 0
KSE1 082215Z 19002KT 28/04 A2968 RMK A01 T02830039  RH  021%=      5-min Rain = 0
KSE1 082220Z 20003KT 28/04 A2968 RMK A01 T02830044  RH  022%=      5-min Rain = 0
KSE1 082225Z 15003KT 28/04 A2968 RMK A01 T02810039  RH  022%=      5-min Rain = 0
KSE1 082230Z 18003KT 28/05 A2967 RMK A01 T02790045  RH  023%=      5-min Rain = 0
KSE1 082235Z 19003KT 28/05 A2967 RMK A01 T02760051  RH  024%=      5-min Rain = 0
KSE1 082240Z 21003KT 27/05 A2967 RMK A01 T02740053  RH  025%=      5-min Rain = 0
KSE1 082245Z 21005KT 27/05 A2967 RMK A01 T02720048  RH  024%=      5-min Rain = 0
KSE1 082250Z 20004KT 28/05 A2967 RMK A01 T02770051  RH  024%=      5-min Rain = 0
KSE1 082255Z 21004KT 28/04 A2967 RMK A01 T02790036  RH  022%=      5-min Rain = 0
KSE1 082300Z 19003KT 28/04 A2967 RMK A01 T02770042  RH  023%=      5-min Rain = 0
KSE1 082305Z 19002KT 28/03 A2967 RMK A01 T02810032  RH  021%=      5-min Rain = 0
KSE1 082310Z 17002KT 28/05 A2966 RMK A01 T02820045  RH  023%=      5-min Rain = 0
KSE1 082315Z 18002KT 28/05 A2966 RMK A01 T02800045  RH  023%=      5-min Rain = 0
KSE1 082320Z 18001KT 28/05 A2966 RMK A01 T02800051  RH  024%=      5-min Rain = 0
KSE1 082325Z 19002KT 28/06 A2966 RMK A01 T02780055  RH  025%=      5-min Rain = 0
KSE1 082330Z 21003KT 27/05 A2966 RMK A01 T02730054  RH  025%=      5-min Rain = 0
KSE1 082335Z 21003KT 27/05 A2966 RMK A01 T02710048  RH  025%=      5-min Rain = 0
KSE1 082340Z 21001KT 27/07 A2967 RMK A01 T02730069  RH  028%=      5-min Rain = 0
KSE1 082345Z 24002KT 28/05 A2967 RMK A01 T02760047  RH  024%=      5-min Rain = 0
KSE1 082350Z 25002KT 28/05 A2967 RMK A01 T02750052  RH  025%=      5-min Rain = 0
KSE1 082355Z 23003KT 28/05 A2967 RMK A01 T02770045  RH  023%=      5-min Rain = 0
KSE1 090000Z 24002KT 28/04 A2967 RMK A01 T02780041  RH  022%=      5-min Rain = 0
KSE1 090005Z 27001KT 28/08 A2967 RMK A01 T02790083  RH  030%=      5-min Rain = 0
KSE1 090010Z 28002KT 28/12 A2967 RMK A01 T02830116  RH  037%=      5-min Rain = 0
KSE1 090015Z 28002KT 28/13 A2967 RMK A01 T02810132  RH  041%=      5-min Rain = 0
KSE1 090020Z 27002KT 27/13 A2967 RMK A01 T02660129  RH  044%=      5-min Rain = 0
KSE1 090025Z 29002KT 26/13 A2967 RMK A01 T02590131  RH  047%=      5-min Rain = 0
KSE1 090030Z 30002KT 25/10 A2967 RMK A01 T02500103  RH  041%=      5-min Rain = 0
KSE1 090035Z 31002KT 25/08 A2967 RMK A01 T02530078  RH  034%=      5-min Rain = 0
KSE1 090040Z 32002KT 24/11 A2967 RMK A01 T02420106  RH  044%=      5-min Rain = 0
KSE1 090045Z 33003KT 23/11 A2967 RMK A01 T02270105  RH  048%=      5-min Rain = 0
KSE1 090050Z 35003KT 21/10 A2967 RMK A01 T02130101  RH  051%=      5-min Rain = 0
KSE1 090055Z 35003KT 20/11 A2967 RMK A01 T02030106  RH  056%=      5-min Rain = 0
KSE1 090100Z 36003KT 19/10 A2967 RMK A01 T01880099  RH  058%=      5-min Rain = 0
KSE1 090105Z 02003KT 18/08 A2967 RMK A01 T01830081  RH  053%=      5-min Rain = 0
KSE1 090110Z 03004KT 18/06 A2967 RMK A01 T01830063  RH  047%=      5-min Rain = 0
KSE1 090115Z 04004KT 18/05 A2967 RMK A01 T01810049  RH  043%=      5-min Rain = 0
KSE1 090120Z 04004KT 18/05 A2967 RMK A01 T01810051  RH  043%=      5-min Rain = 0
KSE1 090125Z 05004KT 18/06 A2967 RMK A01 T01830060  RH  046%=      5-min Rain = 0
KSE1 090130Z 06004KT 17/07 A2967 RMK A01 T01730065  RH  050%=      5-min Rain = 0
KSE1 090135Z 05006KT 18/06 A2966 RMK A01 T01780058  RH  046%=      5-min Rain = 0
KSE1 090140Z 06006KT 19/05 A2967 RMK A01 T01860053  RH  042%=      5-min Rain = 0
KSE1 090145Z 06006KT 17/05 A2967 RMK A01 T01730054  RH  046%=      5-min Rain = 0
KSE1 090150Z 06006KT 18/05 A2966 RMK A01 T01780053  RH  045%=      5-min Rain = 0
KSE1 090155Z 06006KT 18/05 A2966 RMK A01 T01760052  RH  045%=      5-min Rain = 0
KSE1 090200Z 07007KT 18/05 A2966 RMK A01 T01830051  RH  043%=      5-min Rain = 0
KSE1 090205Z 07007KT 18/05 A2966 RMK A01 T01840052  RH  043%=      5-min Rain = 0
KSE1 090210Z 07007KT 19/05 A2967 RMK A01 T01850053  RH  043%=      5-min Rain = 0
KSE1 090215Z 07007KT 18/05 A2966 RMK A01 T01840054  RH  043%=      5-min Rain = 0
KSE1 090220Z 07007KT 19/05 A2966 RMK A01 T01860052  RH  042%=      5-min Rain = 0
KSE1 090225Z 08007KT 18/05 A2966 RMK A01 T01840053  RH  043%=      5-min Rain = 0
KSE1 090230Z 08007KT 18/05 A2966 RMK A01 T01830054  RH  044%=      5-min Rain = 0
KSE1 090235Z 08008KT 18/05 A2966 RMK A01 T01840054  RH  044%=      5-min Rain = 0
KSE1 090240Z 08009KT 19/06 A2966 RMK A01 T01910058  RH  043%=      5-min Rain = 0
KSE1 090245Z 09008KT 20/06 A2967 RMK A01 T01980064  RH  043%=      5-min Rain = 0
KSE1 090250Z 09009KT 20/07 A2967 RMK A01 T01980068  RH  044%=      5-min Rain = 0
KSE1 090255Z 09009KT 20/07 A2967 RMK A01 T01980070  RH  045%=      5-min Rain = 0
KSE1 090300Z 10007KT 19/07 A2967 RMK A01 T01920072  RH  047%=      5-min Rain = 0
KSE1 090305Z 11007KT 18/07 A2967 RMK A01 T01760073  RH  052%=      5-min Rain = 0
KSE1 090310Z 10008KT 17/07 A2967 RMK A01 T01700074  RH  054%=      5-min Rain = 0
KSE1 090315Z 10008KT 17/08 A2967 RMK A01 T01730077  RH  055%=      5-min Rain = 0
KSE1 090320Z 10009KT 18/08 A2966 RMK A01 T01780080  RH  054%=      5-min Rain = 0
KSE1 090325Z 10010KT 19/08 A2966 RMK A01 T01870083  RH  052%=      5-min Rain = 0
KSE1 090330Z 10010KT 19/09 A2966 RMK A01 T01910086  RH  052%=      5-min Rain = 0
KSE1 090335Z 11010KT 19/09 A2966 RMK A01 T01910089  RH  053%=      5-min Rain = 0
KSE1 090340Z 10010KT 19/09 A2965 RMK A01 T01870090  RH  055%=      5-min Rain = 0
KSE1 090345Z 11010KT 19/09 A2965 RMK A01 T01890091  RH  055%=      5-min Rain = 0
KSE1 090350Z 11010KT 19/09 A2965 RMK A01 T01880092  RH  055%=      5-min Rain = 0
KSE1 090355Z 11010KT 19/09 A2965 RMK A01 T01880094  RH  056%=      5-min Rain = 0
KSE1 090400Z 11010KT 19/10 A2964 RMK A01 T01890096  RH  056%=      5-min Rain = 0
KSE1 090405Z 11010KT 19/10 A2964 RMK A01 T01890099  RH  058%=      5-min Rain = 0
KSE1 090410Z 10009KT 19/10 A2964 RMK A01 T01900100  RH  058%=      5-min Rain = 0
KSE1 090415Z 10009KT 19/10 A2964 RMK A01 T01870101  RH  059%=      5-min Rain = 0
KSE1 090420Z 11010KT 19/10 A2964 RMK A01 T01860102  RH  060%=      5-min Rain = 0
KSE1 090425Z 11010KT 18/10 A2964 RMK A01 T01840104  RH  061%=      5-min Rain = 0
KSE1 090430Z 11009KT 19/11 A2963 RMK A01 T01850108  RH  063%=      5-min Rain = 0
KSE1 090435Z 11009KT 19/11 A2963 RMK A01 T01870114  RH  065%=      5-min Rain = 0
KSE1 090440Z 12010KT 19/12 A2963 RMK A01 T01900122  RH  067%=      5-min Rain = 0
KSE1 090445Z 12010KT 19/13 A2963 RMK A01 T01930126  RH  068%=      5-min Rain = 0
KSE1 090450Z 13010G15KT 19/13 A2963 RMK A01 T01920130  RH  070%=      5-min Rain = 0
KSE1 090455Z 13012G18KT 20/13 A2962 RMK A01 T01950133  RH  070%=      5-min Rain = 0

Page generated in 0.0092 seconds.